Open Full Screen Window  High Contrast Mode
Wind Gusting 00 knots
08
May 22, 2015 11:59 AM EDT
Weather Information
Wind Direction
  360 °
Wind Speed
  08 kt (9 mph)
Wind Gust
  00 kt (0 mph)
Altimeter
30.19 in
Visibility
10 SM
Temperature
15° C
59° F
Dewpoint
-03° C
27° F
Humidity
29%
1hr Rain Fall
00.00 in.
24hr Rain Fall
00.00 in.
Sky Condition
Clear
VFR

METAR KIKW 221559Z AUTO 36008KT 10SM CLR 15/M03 A3019 RMK AO2 T01461027

*Background is not an actual portrayal of the airport.